createdAt,value
2019-03-17T00:00:23.612Z,8.34
2019-03-17T00:01:33.557Z,8.34
2019-03-17T00:02:43.257Z,8.45
2019-03-17T00:03:52.443Z,8.53
2019-03-17T00:05:02.396Z,8.59
2019-03-17T00:06:12.771Z,8.57
2019-03-17T00:07:22.731Z,8.57
2019-03-17T00:08:32.451Z,8.46
2019-03-17T00:09:42.414Z,8.5
2019-03-17T00:10:54.958Z,8.45
2019-03-17T00:12:04.670Z,8.57
2019-03-17T00:13:14.385Z,8.49
2019-03-17T00:14:25.545Z,8.6
2019-03-17T00:15:35.534Z,8.44
2019-03-17T00:16:45.310Z,8.6
2019-03-17T00:17:54.848Z,8.57
2019-03-17T00:19:04.564Z,8.66
2019-03-17T00:20:14.282Z,8.53
2019-03-17T00:21:24.231Z,8.66
2019-03-17T00:22:34.190Z,8.5
2019-03-17T00:23:43.642Z,8.46
2019-03-17T00:24:53.599Z,8.54
2019-03-17T00:26:16.072Z,8.61
2019-03-17T00:27:26.051Z,8.61
2019-03-17T00:28:35.738Z,8.68
2019-03-17T00:29:45.215Z,8.66
2019-03-17T00:30:55.159Z,8.56
2019-03-17T00:32:04.605Z,8.5
2019-03-17T00:33:14.706Z,8.6
2019-03-17T00:34:24.665Z,8.59
2019-03-17T00:35:34.623Z,8.5
2019-03-17T00:36:44.401Z,8.39
2019-03-17T00:37:54.120Z,8.44
2019-03-17T00:39:04.062Z,8.49
2019-03-17T00:40:14.029Z,8.44
2019-03-17T00:41:23.756Z,8.46
2019-03-17T00:42:36.819Z,8.54
2019-03-17T00:43:46.506Z,8.45
2019-03-17T00:44:56.206Z,8.54
2019-03-17T00:46:06.169Z,8.46
2019-03-17T00:47:15.799Z,8.5
2019-03-17T00:48:25.831Z,8.6
2019-03-17T00:49:35.768Z,8.63
2019-03-17T00:50:45.456Z,8.59
2019-03-17T00:51:56.780Z,8.46
2019-03-17T00:53:06.474Z,8.46
2019-03-17T00:54:16.419Z,8.49
2019-03-17T00:55:26.108Z,8.6
2019-03-17T00:56:35.806Z,8.52
2019-03-17T00:57:45.750Z,8.56
2019-03-17T00:58:55.192Z,8.57
2019-03-17T01:00:04.895Z,8.56
2019-03-17T01:01:14.879Z,8.66
2019-03-17T01:02:24.824Z,8.66
2019-03-17T01:03:34.782Z,8.72
2019-03-17T01:04:55.633Z,8.63
2019-03-17T01:06:06.174Z,8.61
2019-03-17T01:07:16.119Z,8.59
2019-03-17T01:08:26.059Z,8.57
2019-03-17T01:09:36.021Z,8.64
2019-03-17T01:10:45.960Z,8.61
2019-03-17T01:11:55.673Z,8.57
2019-03-17T01:13:05.632Z,8.61
2019-03-17T01:14:15.578Z,8.64
2019-03-17T01:15:25.276Z,8.6
2019-03-17T01:16:35.227Z,8.6
2019-03-17T01:17:44.916Z,8.6
2019-03-17T01:18:54.350Z,8.61
2019-03-17T01:20:04.280Z,8.68
2019-03-17T01:21:13.728Z,8.63
2019-03-17T01:22:23.680Z,8.61
2019-03-17T01:23:33.660Z,8.66
2019-03-17T01:24:43.354Z,8.61
2019-03-17T01:25:53.050Z,8.54
2019-03-17T01:27:02.520Z,8.63
2019-03-17T01:28:12.227Z,8.75
2019-03-17T01:29:22.194Z,8.68
2019-03-17T01:30:32.136Z,8.74
2019-03-17T01:31:42.102Z,8.66
2019-03-17T01:32:51.539Z,8.64
2019-03-17T01:34:01.471Z,8.71
2019-03-17T01:35:14.617Z,8.68
2019-03-17T01:36:24.574Z,8.64
2019-03-17T01:37:34.019Z,8.68
2019-03-17T01:38:43.462Z,8.66
2019-03-17T01:39:53.414Z,8.64
2019-03-17T01:41:03.360Z,8.6
2019-03-17T01:42:13.357Z,8.71
2019-03-17T01:43:26.162Z,8.68
2019-03-17T01:44:36.117Z,8.64
2019-03-17T01:45:45.823Z,8.64
2019-03-17T01:46:55.530Z,8.69
2019-03-17T01:48:05.293Z,8.68
2019-03-17T01:49:15.245Z,8.68
2019-03-17T01:50:24.961Z,8.66
2019-03-17T01:51:34.918Z,8.68
2019-03-17T01:52:44.368Z,8.71
2019-03-17T01:53:54.303Z,8.63
2019-03-17T01:55:04.257Z,8.66
2019-03-17T01:56:14.200Z,8.71
2019-03-17T01:57:23.889Z,8.75
2019-03-17T01:58:33.857Z,8.75
2019-03-17T01:59:43.795Z,8.66
2019-03-17T02:00:53.731Z,8.74
2019-03-17T02:02:03.692Z,8.71
2019-03-17T02:03:13.647Z,8.72
2019-03-17T02:04:23.336Z,8.75
2019-03-17T02:05:33.291Z,8.66
2019-03-17T02:06:43.248Z,8.74
2019-03-17T02:07:53.203Z,8.69
2019-03-17T02:09:02.894Z,8.64
2019-03-17T02:10:12.846Z,8.68
2019-03-17T02:11:22.763Z,8.63
2019-03-17T02:12:32.478Z,8.66
2019-03-17T02:13:42.420Z,8.63
2019-03-17T02:14:52.396Z,8.57
2019-03-17T02:16:02.337Z,8.71
2019-03-17T02:17:12.303Z,8.69
2019-03-17T02:18:22.304Z,8.77
2019-03-17T02:19:31.729Z,8.75
2019-03-17T02:20:41.425Z,8.75
2019-03-17T02:21:51.358Z,8.79
2019-03-17T02:23:01.339Z,8.72
2019-03-17T02:24:11.070Z,8.81
2019-03-17T02:25:21.026Z,8.78
2019-03-17T02:26:30.716Z,8.66
2019-03-17T02:27:40.645Z,8.74
2019-03-17T02:28:50.576Z,8.82
2019-03-17T02:30:00.011Z,8.81
2019-03-17T02:31:09.980Z,8.74
2019-03-17T02:32:19.965Z,8.72
2019-03-17T02:33:29.899Z,8.68
2019-03-17T02:34:39.655Z,8.66
2019-03-17T02:35:49.383Z,8.71
2019-03-17T02:36:59.110Z,8.72
2019-03-17T02:38:08.310Z,8.64
2019-03-17T02:39:18.264Z,8.75
2019-03-17T02:40:31.181Z,8.71
2019-03-17T02:41:41.140Z,8.75
2019-03-17T02:42:51.081Z,8.77
2019-03-17T02:44:00.781Z,8.71
2019-03-17T02:45:10.484Z,8.77
2019-03-17T02:46:20.432Z,8.74
2019-03-17T02:47:30.137Z,8.72
2019-03-17T02:48:39.721Z,8.77
2019-03-17T02:49:49.705Z,8.75
2019-03-17T02:50:59.410Z,8.69
2019-03-17T02:52:09.379Z,8.72
2019-03-17T02:53:19.095Z,8.71
2019-03-17T02:54:28.798Z,8.63
2019-03-17T02:55:38.756Z,8.68
2019-03-17T02:56:48.743Z,8.64
2019-03-17T02:57:58.548Z,8.57
2019-03-17T02:59:08.526Z,8.61
2019-03-17T03:00:21.088Z,8.64
2019-03-17T03:01:31.068Z,8.75
2019-03-17T03:02:41.067Z,8.68
2019-03-17T03:03:51.031Z,8.64
2019-03-17T03:05:00.979Z,8.64
2019-03-17T03:06:10.448Z,8.68
2019-03-17T03:07:20.153Z,8.64
2019-03-17T03:08:29.883Z,8.63
2019-03-17T03:09:39.844Z,8.61
2019-03-17T03:10:49.556Z,8.61
2019-03-17T03:11:59.659Z,8.72
2019-03-17T03:13:09.764Z,8.68
2019-03-17T03:14:19.475Z,8.78
2019-03-17T03:15:29.265Z,8.66
2019-03-17T03:16:39.234Z,8.63
2019-03-17T03:17:48.438Z,8.6
2019-03-17T03:18:58.160Z,8.66
2019-03-17T03:20:08.275Z,8.61
2019-03-17T03:21:18.275Z,8.64
2019-03-17T03:22:28.297Z,8.68
2019-03-17T03:23:38.286Z,8.66
2019-03-17T03:24:48.294Z,8.68
2019-03-17T03:25:58.256Z,8.69
2019-03-17T03:27:07.979Z,8.69
2019-03-17T03:28:17.945Z,8.71
2019-03-17T03:29:29.825Z,8.69
2019-03-17T03:30:39.798Z,8.74
2019-03-17T03:31:49.639Z,8.57
2019-03-17T03:32:59.762Z,8.69
2019-03-17T03:34:09.911Z,8.6
2019-03-17T03:35:19.670Z,8.66
2019-03-17T03:36:29.405Z,8.61
2019-03-17T03:37:39.370Z,8.63
2019-03-17T03:38:49.067Z,8.6
2019-03-17T03:39:58.918Z,8.54
2019-03-17T03:41:08.895Z,8.46
2019-03-17T03:42:18.097Z,8.5
2019-03-17T03:43:27.801Z,8.49
2019-03-17T03:44:37.744Z,8.46
2019-03-17T03:45:47.447Z,8.46
2019-03-17T03:46:57.402Z,8.52
2019-03-17T03:48:07.396Z,8.52
2019-03-17T03:49:17.109Z,8.53
2019-03-17T03:50:27.117Z,8.52
2019-03-17T03:51:36.834Z,8.49
2019-03-17T03:52:46.525Z,8.52
2019-03-17T03:53:56.245Z,8.52
2019-03-17T03:55:06.199Z,8.41
2019-03-17T03:56:16.265Z,8.34
2019-03-17T03:57:26.005Z,8.34
2019-03-17T03:58:35.959Z,8.53
2019-03-17T03:59:45.691Z,8.45
2019-03-17T04:00:55.420Z,8.38
2019-03-17T04:02:05.373Z,8.34
2019-03-17T04:03:15.336Z,8.35
2019-03-17T04:04:25.152Z,8.36
2019-03-17T04:05:37.709Z,8.35
2019-03-17T04:06:47.653Z,8.35
2019-03-17T04:07:57.628Z,8.39
2019-03-17T04:09:07.347Z,8.36
2019-03-17T04:10:17.083Z,8.36
2019-03-17T04:11:27.049Z,8.32
2019-03-17T04:12:36.990Z,8.35
2019-03-17T04:13:46.941Z,8.16
2019-03-17T04:14:56.640Z,8.32
2019-03-17T04:16:06.605Z,8.32
2019-03-17T04:17:16.596Z,8.21
2019-03-17T04:18:26.551Z,8.2
2019-03-17T04:19:36.018Z,8.16
2019-03-17T04:20:45.997Z,8.32
2019-03-17T04:21:55.712Z,8.39
2019-03-17T04:23:05.701Z,8.34
2019-03-17T04:24:15.408Z,8.35
2019-03-17T04:25:25.371Z,8.36
2019-03-17T04:26:35.353Z,8.34
2019-03-17T04:27:45.343Z,8.35
2019-03-17T04:28:54.788Z,8.34
2019-03-17T04:30:04.853Z,8.36
2019-03-17T04:31:17.146Z,8.52
2019-03-17T04:32:27.125Z,8.56
2019-03-17T04:33:37.080Z,8.52
2019-03-17T04:34:47.050Z,8.45
2019-03-17T04:35:56.763Z,8.36
2019-03-17T04:37:05.957Z,8.38
2019-03-17T04:38:15.661Z,8.36
2019-03-17T04:39:25.433Z,8.49
2019-03-17T04:40:35.138Z,8.45
2019-03-17T04:41:44.571Z,8.5
2019-03-17T04:42:54.510Z,8.5
2019-03-17T04:44:04.461Z,8.61
2019-03-17T04:45:25.741Z,8.5
2019-03-17T04:46:35.515Z,8.35
2019-03-17T04:47:45.463Z,8.42
2019-03-17T04:48:55.779Z,8.39
2019-03-17T04:50:06.131Z,8.34
2019-03-17T04:51:16.069Z,8.23
2019-03-17T04:52:26.042Z,8.36
2019-03-17T04:53:35.479Z,8.36
2019-03-17T04:54:45.479Z,8.34
2019-03-17T04:55:55.195Z,8.36
2019-03-17T04:57:05.171Z,8.45
2019-03-17T04:58:15.105Z,8.35
2019-03-17T04:59:24.537Z,8.36
2019-03-17T05:00:34.478Z,8.32
2019-03-17T05:01:43.923Z,8.36
2019-03-17T05:02:53.618Z,8.35
2019-03-17T05:04:03.316Z,8.35
2019-03-17T05:05:13.266Z,8.36
2019-03-17T05:06:23.191Z,8.32
2019-03-17T05:07:33.140Z,8.36
2019-03-17T05:08:43.079Z,8.38
2019-03-17T05:09:53.023Z,8.46
2019-03-17T05:11:02.544Z,8.53
2019-03-17T05:12:12.490Z,8.61
2019-03-17T05:13:22.168Z,8.5
2019-03-17T05:14:32.128Z,8.54
2019-03-17T05:15:41.819Z,8.45
2019-03-17T05:16:51.769Z,8.61
2019-03-17T05:18:01.455Z,8.6
2019-03-17T05:19:11.166Z,8.64
2019-03-17T05:20:21.111Z,8.64
2019-03-17T05:21:30.851Z,8.64
2019-03-17T05:22:40.300Z,8.63
2019-03-17T05:23:50.270Z,8.66
2019-03-17T05:24:59.988Z,8.68
2019-03-17T05:26:09.935Z,8.66
2019-03-17T05:27:19.875Z,8.64
2019-03-17T05:28:29.825Z,8.72
2019-03-17T05:29:39.777Z,8.64
2019-03-17T05:30:49.220Z,8.68
2019-03-17T05:31:58.909Z,8.66
2019-03-17T05:33:08.613Z,8.63
2019-03-17T05:34:18.570Z,8.68
2019-03-17T05:35:28.570Z,8.63
2019-03-17T05:36:38.562Z,8.69
2019-03-17T05:37:48.525Z,8.6
2019-03-17T05:38:58.484Z,8.71
2019-03-17T05:40:08.267Z,8.61
2019-03-17T05:41:17.977Z,8.72
2019-03-17T05:42:27.666Z,8.63
2019-03-17T05:43:37.609Z,8.61
2019-03-17T05:44:47.306Z,8.69
2019-03-17T05:45:57.259Z,8.66
2019-03-17T05:47:07.216Z,8.72
2019-03-17T05:48:17.165Z,8.69
2019-03-17T05:49:27.119Z,8.72
2019-03-17T05:50:36.826Z,8.66
2019-03-17T05:51:46.521Z,8.68
2019-03-17T05:52:56.212Z,8.63
2019-03-17T05:54:06.231Z,8.64
2019-03-17T05:55:16.184Z,8.6
2019-03-17T05:56:25.875Z,8.64
2019-03-17T05:57:35.855Z,8.57
2019-03-17T05:58:45.789Z,8.52
2019-03-17T05:59:55.230Z,8.53
2019-03-17T06:01:05.167Z,8.59
2019-03-17T06:02:15.188Z,8.49
2019-03-17T06:03:25.144Z,8.52
2019-03-17T06:04:34.843Z,8.53
2019-03-17T06:05:44.573Z,8.46
2019-03-17T06:06:54.551Z,8.46
2019-03-17T06:08:04.563Z,8.39
2019-03-17T06:09:14.246Z,8.5
2019-03-17T06:10:24.197Z,8.38
2019-03-17T06:11:33.646Z,8.52
2019-03-17T06:12:43.599Z,8.36
2019-03-17T06:13:56.083Z,8.34
2019-03-17T06:15:05.622Z,8.35
2019-03-17T06:16:14.812Z,8.38
2019-03-17T06:17:24.745Z,8.38
2019-03-17T06:18:34.452Z,8.39
2019-03-17T06:19:44.400Z,8.31
2019-03-17T06:20:53.846Z,8.38
2019-03-17T06:22:05.333Z,8.27
2019-03-17T06:23:15.277Z,8.36
2019-03-17T06:24:25.237Z,8.34
2019-03-17T06:25:35.224Z,8.36
2019-03-17T06:26:45.181Z,8.32
2019-03-17T06:27:55.122Z,8.18
2019-03-17T06:29:05.073Z,8.26
2019-03-17T06:30:15.014Z,8.31
2019-03-17T06:31:24.965Z,8.21
2019-03-17T06:32:34.910Z,8.26
2019-03-17T06:33:44.849Z,8.28
2019-03-17T06:34:54.799Z,8.21
2019-03-17T06:36:04.752Z,8.2
2019-03-17T06:37:14.490Z,8.28
2019-03-17T06:38:36.264Z,8.34
2019-03-17T06:39:46.223Z,8.32
2019-03-17T06:40:56.257Z,8.35
2019-03-17T06:42:09.256Z,8.36
2019-03-17T06:43:19.222Z,8.36
2019-03-17T06:44:29.191Z,8.52
2019-03-17T06:45:39.138Z,8.49
2019-03-17T06:46:48.830Z,8.5
2019-03-17T06:47:58.807Z,8.46
2019-03-17T06:49:08.568Z,8.49
2019-03-17T06:50:18.518Z,8.61
2019-03-17T06:51:28.490Z,8.45
2019-03-17T06:52:37.973Z,8.56
2019-03-17T06:54:00.467Z,8.61
2019-03-17T06:55:10.424Z,8.53
2019-03-17T06:56:20.113Z,8.57
2019-03-17T06:57:30.064Z,8.68
2019-03-17T06:58:40.021Z,8.66
2019-03-17T06:59:49.991Z,8.68
2019-03-17T07:00:59.949Z,8.74
2019-03-17T07:02:09.674Z,8.69
2019-03-17T07:03:19.626Z,8.81
2019-03-17T07:04:29.321Z,8.77
2019-03-17T07:05:39.261Z,8.69
2019-03-17T07:06:49.217Z,8.72
2019-03-17T07:07:58.930Z,8.79
2019-03-17T07:09:08.601Z,8.86
2019-03-17T07:10:18.346Z,8.81
2019-03-17T07:11:28.053Z,8.81
2019-03-17T07:12:38.016Z,8.84
2019-03-17T07:13:47.984Z,8.84
2019-03-17T07:14:57.963Z,8.97
2019-03-17T07:16:08.080Z,8.92
2019-03-17T07:17:19.296Z,8.96
2019-03-17T07:18:29.398Z,8.92
2019-03-17T07:19:39.094Z,8.99
2019-03-17T07:20:49.044Z,8.97
2019-03-17T07:21:58.747Z,8.97
2019-03-17T07:23:08.729Z,8.97
2019-03-17T07:24:18.680Z,9
2019-03-17T07:25:28.618Z,8.89
2019-03-17T07:26:38.560Z,8.84
2019-03-17T07:27:48.004Z,8.89
2019-03-17T07:28:57.937Z,8.84
2019-03-17T07:30:07.877Z,8.87
2019-03-17T07:31:17.582Z,8.82
2019-03-17T07:32:27.546Z,8.75
2019-03-17T07:33:37.502Z,8.78
2019-03-17T07:34:47.204Z,8.77
2019-03-17T07:35:56.898Z,8.82
2019-03-17T07:37:06.618Z,8.82
2019-03-17T07:38:16.616Z,8.89
2019-03-17T07:39:26.062Z,8.93
2019-03-17T07:40:35.795Z,8.93
2019-03-17T07:41:45.952Z,8.95
2019-03-17T07:42:55.886Z,8.96
2019-03-17T07:44:05.831Z,9
2019-03-17T07:45:15.610Z,9.11
2019-03-17T07:46:25.562Z,9.12
2019-03-17T07:47:37.887Z,9.21
2019-03-17T07:48:47.893Z,9.26
2019-03-17T07:49:57.326Z,9.22
2019-03-17T07:51:07.272Z,9.18
2019-03-17T07:52:17.230Z,9.24
2019-03-17T07:53:26.925Z,9.27
2019-03-17T07:54:39.593Z,9.27
2019-03-17T07:55:49.529Z,9.26
2019-03-17T07:56:58.962Z,9.19
2019-03-17T07:58:08.912Z,9.27
2019-03-17T07:59:18.646Z,9.39
2019-03-17T08:00:36.823Z,9.39
2019-03-17T08:01:46.795Z,9.36
2019-03-17T08:02:56.748Z,9.44
2019-03-17T08:04:06.725Z,9.42
2019-03-17T08:05:16.668Z,9.42
2019-03-17T08:06:26.396Z,9.47
2019-03-17T08:07:36.185Z,9.51
2019-03-17T08:08:46.308Z,9.59
2019-03-17T08:09:56.626Z,9.64
2019-03-17T08:11:06.569Z,9.54
2019-03-17T08:12:16.528Z,9.64
2019-03-17T08:13:26.482Z,9.69
2019-03-17T08:14:36.172Z,9.7
2019-03-17T08:15:45.890Z,9.73
2019-03-17T08:16:55.844Z,9.84
2019-03-17T08:18:05.538Z,9.81
2019-03-17T08:19:15.490Z,9.84
2019-03-17T08:20:25.453Z,9.88
2019-03-17T08:21:35.397Z,9.82
2019-03-17T08:22:48.547Z,9.88
2019-03-17T08:23:58.519Z,9.88
2019-03-17T08:25:08.462Z,10.03
2019-03-17T08:26:18.405Z,10.07
2019-03-17T08:27:28.358Z,10.05
2019-03-17T08:28:38.053Z,10.09
2019-03-17T08:29:48.025Z,10.05
2019-03-17T08:30:58.531Z,10.27
2019-03-17T08:32:08.236Z,10.21
2019-03-17T08:33:18.178Z,10.2
2019-03-17T08:34:28.153Z,10.25
2019-03-17T08:35:37.447Z,10.39
2019-03-17T08:36:47.382Z,10.64
2019-03-17T08:37:57.337Z,10.75
2019-03-17T08:39:06.794Z,10.95
2019-03-17T08:40:16.736Z,11.02
2019-03-17T08:41:26.681Z,11.04
2019-03-17T08:42:36.632Z,11.1
2019-03-17T08:43:58.464Z,10.95
2019-03-17T08:45:08.224Z,10.97
2019-03-17T08:46:17.918Z,11.16
2019-03-17T08:47:27.604Z,11.25
2019-03-17T08:48:37.567Z,11.16
2019-03-17T08:49:47.255Z,11.16
2019-03-17T08:50:56.706Z,11.15
2019-03-17T08:52:06.404Z,11.16
2019-03-17T08:53:16.121Z,11.12
2019-03-17T08:54:26.078Z,11.13
2019-03-17T08:55:36.058Z,11.13
2019-03-17T08:56:46.038Z,11.18
2019-03-17T08:57:56.001Z,11.19
2019-03-17T08:59:05.761Z,11.22
2019-03-17T09:00:15.735Z,11.23
2019-03-17T09:01:25.437Z,11.07
2019-03-17T09:02:35.381Z,11.18
2019-03-17T09:03:45.096Z,11.18
2019-03-17T09:04:55.077Z,11.25
2019-03-17T09:06:04.530Z,11.07
2019-03-17T09:07:14.237Z,11.16
2019-03-17T09:08:36.657Z,11
2019-03-17T09:09:46.608Z,10.94
2019-03-17T09:10:56.559Z,11.16
2019-03-17T09:12:06.512Z,11.01
2019-03-17T09:13:16.241Z,10.97
2019-03-17T09:14:26.209Z,11.16
2019-03-17T09:15:35.917Z,11.26
2019-03-17T09:16:45.683Z,11.25
2019-03-17T09:17:55.451Z,11.44
2019-03-17T09:19:05.418Z,11.4
2019-03-17T09:20:15.376Z,11.38
2019-03-17T09:21:25.088Z,11.33
2019-03-17T09:22:34.886Z,11.44
2019-03-17T09:23:47.449Z,11.34
2019-03-17T09:24:57.402Z,11.37
2019-03-17T09:26:07.353Z,11.62
2019-03-17T09:27:17.306Z,11.86
2019-03-17T09:28:27.268Z,11.83
2019-03-17T09:29:37.226Z,11.95
2019-03-17T09:30:47.202Z,12.05
2019-03-17T09:31:57.187Z,12.05
2019-03-17T09:33:07.132Z,12.15
2019-03-17T09:34:17.091Z,12.45
2019-03-17T09:35:27.108Z,12.51
2019-03-17T09:36:37.377Z,12.51
2019-03-17T09:37:47.358Z,12.84
2019-03-17T09:38:57.067Z,12.88
2019-03-17T09:40:06.783Z,12.87
2019-03-17T09:41:16.482Z,12.95
2019-03-17T09:42:26.431Z,13.2
2019-03-17T09:43:36.413Z,12.9
2019-03-17T09:44:46.362Z,13.11
2019-03-17T09:45:56.339Z,13.4
2019-03-17T09:47:06.278Z,13.23
2019-03-17T09:48:15.987Z,13.27
2019-03-17T09:49:25.942Z,13.2
2019-03-17T09:50:35.655Z,13.3
2019-03-17T09:51:45.613Z,13.3
2019-03-17T09:52:55.576Z,13.19
2019-03-17T09:54:05.551Z,12.9
2019-03-17T09:55:15.509Z,12.99
2019-03-17T09:56:25.472Z,12.84
2019-03-17T09:57:34.951Z,12.78
2019-03-17T09:58:45.679Z,12.76
2019-03-17T09:59:55.784Z,12.8
2019-03-17T10:01:05.773Z,12.73
2019-03-17T10:02:15.479Z,12.72
2019-03-17T10:03:25.429Z,12.78
2019-03-17T10:04:35.387Z,12.78
2019-03-17T10:05:45.355Z,12.78
2019-03-17T10:06:57.191Z,12.73
2019-03-17T10:08:06.908Z,12.5
2019-03-17T10:09:16.859Z,12.76
2019-03-17T10:10:26.825Z,12.72
2019-03-17T10:11:36.542Z,12.72
2019-03-17T10:12:46.262Z,12.75
2019-03-17T10:13:55.978Z,12.75
2019-03-17T10:15:05.929Z,12.91
2019-03-17T10:16:15.874Z,12.81
2019-03-17T10:17:25.825Z,12.86
2019-03-17T10:18:35.521Z,12.73
2019-03-17T10:19:45.241Z,12.83
2019-03-17T10:20:55.199Z,12.75
2019-03-17T10:22:04.740Z,12.73
2019-03-17T10:23:14.455Z,12.73
2019-03-17T10:24:24.192Z,12.72
2019-03-17T10:25:34.149Z,12.63
2019-03-17T10:26:43.852Z,12.51
2019-03-17T10:27:53.829Z,12.39
2019-03-17T10:29:03.775Z,12.48
2019-03-17T10:30:13.724Z,12.37
2019-03-17T10:31:23.687Z,12.39
2019-03-17T10:32:33.395Z,12.36
2019-03-17T10:33:45.593Z,12.3
2019-03-17T10:34:55.671Z,12.32
2019-03-17T10:36:05.411Z,12.43
2019-03-17T10:37:15.354Z,12.33
2019-03-17T10:38:24.809Z,12.2
2019-03-17T10:39:34.764Z,12.29
2019-03-17T10:40:44.486Z,12.33
2019-03-17T10:41:54.470Z,12.33
2019-03-17T10:43:04.420Z,12.29
2019-03-17T10:44:14.470Z,12.32
2019-03-17T10:45:24.179Z,12.28
2019-03-17T10:46:33.942Z,12.26
2019-03-17T10:47:43.400Z,12.12
2019-03-17T10:48:53.104Z,12.26
2019-03-17T10:50:03.417Z,12.21
2019-03-17T10:51:13.391Z,12.29
2019-03-17T10:52:23.324Z,12.25
2019-03-17T10:53:33.037Z,12.25
2019-03-17T10:54:42.991Z,12.32
2019-03-17T10:55:52.715Z,12.25
2019-03-17T10:57:02.421Z,12.44
2019-03-17T10:58:12.373Z,12.37
2019-03-17T10:59:22.323Z,12.4
2019-03-17T11:00:35.317Z,12.35
2019-03-17T11:01:45.284Z,12.33
2019-03-17T11:02:55.293Z,12.43
2019-03-17T11:04:05.233Z,12.44
2019-03-17T11:05:15.186Z,12.4
2019-03-17T11:06:25.144Z,12.45
2019-03-17T11:07:34.843Z,12.5
2019-03-17T11:08:44.815Z,12.51
2019-03-17T11:09:54.533Z,12.45
2019-03-17T11:11:04.237Z,12.53
2019-03-17T11:12:17.047Z,12.55
2019-03-17T11:13:27.002Z,12.51
2019-03-17T11:14:36.959Z,12.5
2019-03-17T11:15:46.921Z,12.51
2019-03-17T11:16:56.618Z,12.54
2019-03-17T11:18:06.574Z,12.69
2019-03-17T11:19:16.521Z,12.66
2019-03-17T11:20:26.485Z,12.58
2019-03-17T11:21:36.190Z,12.5
2019-03-17T11:22:45.892Z,12.5
2019-03-17T11:23:55.612Z,12.63
2019-03-17T11:25:05.327Z,12.53
2019-03-17T11:26:14.796Z,12.5
2019-03-17T11:27:24.750Z,12.39
2019-03-17T11:28:34.462Z,12.5
2019-03-17T11:29:44.170Z,12.37
2019-03-17T11:30:54.119Z,12.36
2019-03-17T11:32:06.390Z,12.5
2019-03-17T11:33:16.424Z,12.51
2019-03-17T11:34:26.416Z,12.36
2019-03-17T11:35:36.157Z,12.33
2019-03-17T11:36:46.129Z,12.39
2019-03-17T11:37:55.847Z,12.43
2019-03-17T11:39:05.553Z,12.4
2019-03-17T11:40:15.521Z,12.37
2019-03-17T11:41:25.498Z,12.32
2019-03-17T11:42:35.435Z,12.51
2019-03-17T11:43:45.401Z,12.51
2019-03-17T11:44:55.098Z,12.47
2019-03-17T11:46:04.797Z,12.44
2019-03-17T11:47:14.742Z,12.35
2019-03-17T11:48:24.696Z,12.36
2019-03-17T11:49:34.666Z,12.39
2019-03-17T11:50:44.399Z,12.26
2019-03-17T11:51:54.344Z,12.32
2019-03-17T11:53:04.304Z,12.33
2019-03-17T11:54:14.013Z,12.25
2019-03-17T11:55:23.468Z,12.18
2019-03-17T11:56:32.931Z,12.21
2019-03-17T11:57:42.873Z,12.14
2019-03-17T11:58:53.039Z,12.28
2019-03-17T12:00:03.012Z,12.17
2019-03-17T12:01:12.458Z,12.25
2019-03-17T12:02:31.465Z,12.11
2019-03-17T12:03:41.426Z,12.12
2019-03-17T12:04:51.116Z,12.1
2019-03-17T12:06:01.088Z,12.15
2019-03-17T12:07:10.796Z,12.14
2019-03-17T12:08:20.751Z,12.03
2019-03-17T12:09:34.027Z,12.08
2019-03-17T12:10:55.216Z,12.17
2019-03-17T12:12:05.166Z,12.05
2019-03-17T12:13:15.124Z,12.08
2019-03-17T12:14:25.069Z,11.96
2019-03-17T12:15:35.031Z,12.05
2019-03-17T12:16:44.478Z,12.05
2019-03-17T12:17:54.436Z,12
2019-03-17T12:19:04.138Z,12.08
2019-03-17T12:20:14.096Z,12.1
2019-03-17T12:21:24.139Z,12.02
2019-03-17T12:22:34.084Z,12.1
2019-03-17T12:23:44.047Z,12.03
2019-03-17T12:24:54.003Z,11.96
2019-03-17T12:26:03.716Z,12.02
2019-03-17T12:27:13.429Z,11.96
2019-03-17T12:28:23.134Z,11.96
2019-03-17T12:29:32.602Z,12.02
2019-03-17T12:30:42.588Z,11.97
2019-03-17T12:31:52.524Z,12.02
2019-03-17T12:33:01.977Z,11.95
2019-03-17T12:34:11.684Z,11.97
2019-03-17T12:35:32.968Z,11.96
2019-03-17T12:36:42.685Z,11.99
2019-03-17T12:37:51.889Z,12.05
2019-03-17T12:39:01.618Z,11.95
2019-03-17T12:40:11.577Z,11.99
2019-03-17T12:41:21.531Z,11.88
2019-03-17T12:42:31.246Z,11.99
2019-03-17T12:43:40.942Z,11.95
2019-03-17T12:44:50.660Z,11.91
2019-03-17T12:46:00.627Z,11.97
2019-03-17T12:47:10.587Z,11.93
2019-03-17T12:48:20.546Z,11.91
2019-03-17T12:49:30.270Z,11.99
2019-03-17T12:50:40.016Z,11.86
2019-03-17T12:51:49.566Z,11.85
2019-03-17T12:52:59.532Z,11.86
2019-03-17T12:54:09.508Z,11.99
2019-03-17T12:55:18.977Z,11.93
2019-03-17T12:56:28.941Z,11.89
2019-03-17T12:57:38.909Z,11.95
2019-03-17T12:58:48.864Z,11.93
2019-03-17T12:59:58.830Z,11.85
2019-03-17T13:01:08.788Z,11.93
2019-03-17T13:02:18.741Z,11.91
2019-03-17T13:03:28.689Z,11.91
2019-03-17T13:04:38.390Z,11.96
2019-03-17T13:05:48.357Z,12.02
2019-03-17T13:06:58.318Z,11.97
2019-03-17T13:08:08.043Z,11.96
2019-03-17T13:09:17.999Z,11.89
2019-03-17T13:10:27.702Z,11.81
2019-03-17T13:11:37.652Z,11.68
2019-03-17T13:12:47.620Z,11.49
2019-03-17T13:13:57.074Z,11.18
2019-03-17T13:15:07.050Z,10.48
2019-03-17T13:16:16.783Z,9.88
2019-03-17T13:17:26.716Z,9.36
2019-03-17T13:18:36.667Z,8.9
2019-03-17T13:19:46.358Z,8.53
2019-03-17T13:20:56.097Z,8.03
2019-03-17T13:22:06.097Z,7.67
2019-03-17T13:23:16.048Z,7.64
2019-03-17T13:24:26.010Z,7.55
2019-03-17T13:25:35.960Z,7.47
2019-03-17T13:26:45.920Z,7.32
2019-03-17T13:27:55.378Z,7.36
2019-03-17T13:29:05.075Z,7.28
2019-03-17T13:30:15.052Z,7.22
2019-03-17T13:31:25.483Z,7.32
2019-03-17T13:32:34.938Z,7.18
2019-03-17T13:33:44.656Z,7.18
2019-03-17T13:34:54.605Z,7.13
2019-03-17T13:36:04.549Z,7.08
2019-03-17T13:37:14.539Z,7.04
2019-03-17T13:38:24.227Z,7.01
2019-03-17T13:39:34.156Z,7.03
2019-03-17T13:40:44.116Z,7.03
2019-03-17T13:41:54.072Z,7.07
2019-03-17T13:43:04.042Z,7.03
2019-03-17T13:44:13.732Z,7.07
2019-03-17T13:45:23.485Z,7.04
2019-03-17T13:46:33.475Z,6.97
2019-03-17T13:47:43.526Z,7.03
2019-03-17T13:48:53.227Z,7.03
2019-03-17T13:50:03.201Z,7.04
2019-03-17T13:51:12.651Z,7.04
2019-03-17T13:52:22.606Z,7.04
2019-03-17T13:53:32.576Z,6.93
2019-03-17T13:54:42.300Z,6.92
2019-03-17T13:55:52.246Z,6.95
2019-03-17T13:57:01.944Z,6.89
2019-03-17T13:58:11.394Z,6.96
2019-03-17T13:59:21.348Z,6.93
2019-03-17T14:00:31.104Z,6.97
2019-03-17T14:01:41.073Z,6.95
2019-03-17T14:02:50.522Z,6.96
2019-03-17T14:04:00.232Z,6.96
2019-03-17T14:05:10.268Z,7.03
2019-03-17T14:06:20.232Z,6.95
2019-03-17T14:07:30.202Z,6.97
2019-03-17T14:08:39.888Z,6.95
2019-03-17T14:09:49.585Z,6.96
2019-03-17T14:10:59.306Z,6.93
2019-03-17T14:12:09.292Z,6.89
2019-03-17T14:13:19.267Z,6.93
2019-03-17T14:14:29.274Z,6.87
2019-03-17T14:15:39.247Z,6.89
2019-03-17T14:16:48.703Z,6.87
2019-03-17T14:17:58.394Z,6.87
2019-03-17T14:19:08.346Z,6.8
2019-03-17T14:20:20.488Z,6.9
2019-03-17T14:21:30.632Z,6.85
2019-03-17T14:22:40.377Z,6.86
2019-03-17T14:23:50.593Z,6.87
2019-03-17T14:25:00.059Z,6.87
2019-03-17T14:26:09.762Z,6.86
2019-03-17T14:27:19.724Z,6.83
2019-03-17T14:28:29.721Z,6.82
2019-03-17T14:29:39.675Z,6.86
2019-03-17T14:30:49.374Z,6.89
2019-03-17T14:31:59.077Z,6.92
2019-03-17T14:33:09.259Z,6.96
2019-03-17T14:34:19.209Z,6.92
2019-03-17T14:35:28.950Z,7.01
2019-03-17T14:36:38.661Z,6.95
2019-03-17T14:37:48.177Z,6.97
2019-03-17T14:38:58.017Z,6.95
2019-03-17T14:40:07.975Z,7.04
2019-03-17T14:41:17.711Z,7.14
2019-03-17T14:42:27.661Z,7.03
2019-03-17T14:43:37.621Z,7.13
2019-03-17T14:44:47.588Z,7.14
2019-03-17T14:45:57.282Z,7.15
2019-03-17T14:47:06.996Z,7.19
2019-03-17T14:48:16.687Z,7.22
2019-03-17T14:49:26.382Z,7.14
2019-03-17T14:50:36.089Z,7.18
2019-03-17T14:51:46.061Z,7.03
2019-03-17T14:52:56.028Z,7.13
2019-03-17T14:54:08.288Z,7.31
2019-03-17T14:55:18.244Z,7.19
2019-03-17T14:56:28.194Z,7.19
2019-03-17T14:57:37.894Z,7.18
2019-03-17T14:58:47.842Z,7.32
2019-03-17T14:59:57.792Z,7.29
2019-03-17T15:01:07.957Z,7.25
2019-03-17T15:02:17.661Z,7.11
2019-03-17T15:03:27.415Z,7.11
2019-03-17T15:04:37.116Z,7.18
2019-03-17T15:05:48.587Z,7.21
2019-03-17T15:06:58.307Z,7.21
2019-03-17T15:08:08.018Z,7.15
2019-03-17T15:09:17.957Z,7.07
2019-03-17T15:10:27.680Z,7.14
2019-03-17T15:11:37.648Z,7.15
2019-03-17T15:12:47.362Z,7.26
2019-03-17T15:13:57.321Z,7.26
2019-03-17T15:15:07.376Z,7.36
2019-03-17T15:16:17.326Z,7.33
2019-03-17T15:17:27.009Z,7.18
2019-03-17T15:18:36.947Z,7.23
2019-03-17T15:19:46.655Z,7.14
2019-03-17T15:20:56.606Z,7.21
2019-03-17T15:22:06.301Z,7.32
2019-03-17T15:23:16.040Z,7.15
2019-03-17T15:24:25.486Z,7.25
2019-03-17T15:25:35.440Z,7.29